createdAt,value
2019-01-12T00:00:02.382Z,3.93
2019-01-12T00:01:02.706Z,3.87
2019-01-12T00:02:03.019Z,3.93
2019-01-12T00:03:02.283Z,4
2019-01-12T00:04:02.609Z,3.93
2019-01-12T00:05:02.920Z,3.93
2019-01-12T00:06:03.238Z,3.93
2019-01-12T00:07:02.544Z,3.93
2019-01-12T00:08:02.846Z,3.87
2019-01-12T00:09:03.164Z,3.87
2019-01-12T00:10:02.442Z,3.87
2019-01-12T00:11:02.777Z,3.93
2019-01-12T00:12:03.110Z,3.87
2019-01-12T00:13:02.391Z,3.81
2019-01-12T00:14:02.735Z,3.81
2019-01-12T00:15:03.008Z,3.93
2019-01-12T00:16:02.277Z,3.93
2019-01-12T00:17:02.663Z,3.87
2019-01-12T00:18:02.930Z,4
2019-01-12T00:19:03.266Z,3.93
2019-01-12T00:20:03.422Z,3.93
2019-01-12T00:21:02.705Z,3.93
2019-01-12T00:22:03.052Z,3.93
2019-01-12T00:23:03.343Z,3.93
2019-01-12T00:24:02.622Z,3.93
2019-01-12T00:25:02.938Z,3.93
2019-01-12T00:26:03.267Z,3.93
2019-01-12T00:27:02.536Z,4
2019-01-12T00:28:02.903Z,3.93
2019-01-12T00:29:03.219Z,3.93
2019-01-12T00:30:02.592Z,4
2019-01-12T00:31:02.863Z,4.06
2019-01-12T00:32:03.167Z,4
2019-01-12T00:33:02.542Z,3.93
2019-01-12T00:34:02.848Z,4
2019-01-12T00:35:03.161Z,3.93
2019-01-12T00:36:02.460Z,4
2019-01-12T00:37:02.769Z,3.93
2019-01-12T00:38:03.174Z,3.87
2019-01-12T00:39:02.414Z,3.87
2019-01-12T00:40:02.846Z,3.93
2019-01-12T00:41:03.165Z,4
2019-01-12T00:42:02.572Z,4
2019-01-12T00:43:03.012Z,3.93
2019-01-12T00:44:02.300Z,3.87
2019-01-12T00:45:02.657Z,3.87
2019-01-12T00:46:02.933Z,3.93
2019-01-12T00:47:03.241Z,3.93
2019-01-12T00:48:02.573Z,3.93
2019-01-12T00:49:02.918Z,3.87
2019-01-12T00:50:03.246Z,3.87
2019-01-12T00:51:02.541Z,3.93
2019-01-12T00:52:02.856Z,3.81
2019-01-12T00:53:03.212Z,3.81
2019-01-12T00:54:02.565Z,3.87
2019-01-12T00:55:02.856Z,3.81
2019-01-12T00:56:03.167Z,3.87
2019-01-12T00:57:02.447Z,3.87
2019-01-12T00:58:02.768Z,3.81
2019-01-12T00:59:03.135Z,3.81
2019-01-12T01:00:02.459Z,3.81
2019-01-12T01:01:02.824Z,3.81
2019-01-12T01:02:03.165Z,3.81
2019-01-12T01:03:02.453Z,3.93
2019-01-12T01:04:02.904Z,3.87
2019-01-12T01:05:03.252Z,3.87
2019-01-12T01:06:02.523Z,3.93
2019-01-12T01:07:03.779Z,3.87
2019-01-12T01:08:03.161Z,3.81
2019-01-12T01:09:02.472Z,3.87
2019-01-12T01:10:02.866Z,3.81
2019-01-12T01:11:03.164Z,3.87
2019-01-12T01:12:02.438Z,3.87
2019-01-12T01:13:02.772Z,3.93
2019-01-12T01:14:03.102Z,3.93
2019-01-12T01:15:02.425Z,3.87
2019-01-12T01:16:02.850Z,3.87
2019-01-12T01:17:03.177Z,3.87
2019-01-12T01:18:02.507Z,3.87
2019-01-12T01:19:02.763Z,3.87
2019-01-12T01:20:03.222Z,3.87
2019-01-12T01:21:02.547Z,3.93
2019-01-12T01:22:02.851Z,3.93
2019-01-12T01:23:03.171Z,3.93
2019-01-12T01:24:02.447Z,3.93
2019-01-12T01:25:02.775Z,3.93
2019-01-12T01:26:03.110Z,3.93
2019-01-12T01:27:02.438Z,3.87
2019-01-12T01:28:02.760Z,3.87
2019-01-12T01:29:03.019Z,3.87
2019-01-12T01:30:02.292Z,3.93
2019-01-12T01:31:02.702Z,3.87
2019-01-12T01:32:03.054Z,3.87
2019-01-12T01:33:02.371Z,3.87
2019-01-12T01:34:02.688Z,3.87
2019-01-12T01:35:03.068Z,3.81
2019-01-12T01:36:02.518Z,3.81
2019-01-12T01:37:02.888Z,3.87
2019-01-12T01:38:03.197Z,3.81
2019-01-12T01:39:03.422Z,3.81
2019-01-12T01:40:02.691Z,3.81
2019-01-12T01:41:03.287Z,3.87
2019-01-12T01:42:02.611Z,3.87
2019-01-12T01:43:02.892Z,3.87
2019-01-12T01:44:03.177Z,3.87
2019-01-12T01:45:02.453Z,3.81
2019-01-12T01:46:02.847Z,3.93
2019-01-12T01:47:03.332Z,3.81
2019-01-12T01:48:02.622Z,3.87
2019-01-12T01:49:03.001Z,3.87
2019-01-12T01:50:02.320Z,3.87
2019-01-12T01:51:02.626Z,3.81
2019-01-12T01:52:03.018Z,3.81
2019-01-12T01:53:02.288Z,3.87
2019-01-12T01:54:02.613Z,3.87
2019-01-12T01:55:02.944Z,3.93
2019-01-12T01:56:03.257Z,3.87
2019-01-12T01:57:02.629Z,3.87
2019-01-12T01:58:02.953Z,3.87
2019-01-12T01:59:03.265Z,3.87
2019-01-12T02:00:02.620Z,3.93
2019-01-12T02:01:02.983Z,3.93
2019-01-12T02:02:02.295Z,3.93
2019-01-12T02:03:02.715Z,3.87
2019-01-12T02:04:03.007Z,3.87
2019-01-12T02:05:03.258Z,3.93
2019-01-12T02:06:02.525Z,3.81
2019-01-12T02:07:02.836Z,3.87
2019-01-12T02:08:03.417Z,3.87
2019-01-12T02:09:02.741Z,3.87
2019-01-12T02:10:03.160Z,3.87
2019-01-12T02:11:02.634Z,3.87
2019-01-12T02:12:03.061Z,3.87
2019-01-12T02:13:02.656Z,3.81
2019-01-12T02:14:03.098Z,3.87
2019-01-12T02:15:02.388Z,3.81
2019-01-12T02:16:02.728Z,3.87
2019-01-12T02:17:03.000Z,3.87
2019-01-12T02:18:02.338Z,3.87
2019-01-12T02:19:02.606Z,3.75
2019-01-12T02:20:02.922Z,3.75
2019-01-12T02:21:03.252Z,3.75
2019-01-12T02:22:02.530Z,3.75
2019-01-12T02:23:02.873Z,3.81
2019-01-12T02:24:03.187Z,3.81
2019-01-12T02:25:02.450Z,3.81
2019-01-12T02:26:02.781Z,3.81
2019-01-12T02:27:03.096Z,3.81
2019-01-12T02:28:02.382Z,3.75
2019-01-12T02:29:02.784Z,3.81
2019-01-12T02:30:03.081Z,3.75
2019-01-12T02:31:02.416Z,3.75
2019-01-12T02:32:02.745Z,3.75
2019-01-12T02:33:03.025Z,3.75
2019-01-12T02:34:02.386Z,3.68
2019-01-12T02:35:02.700Z,3.75
2019-01-12T02:36:03.014Z,3.81
2019-01-12T02:37:02.286Z,3.81
2019-01-12T02:38:02.606Z,3.75
2019-01-12T02:39:02.953Z,3.75
2019-01-12T02:40:03.264Z,3.75
2019-01-12T02:41:02.530Z,3.75
2019-01-12T02:42:02.845Z,3.75
2019-01-12T02:43:03.170Z,3.81
2019-01-12T02:44:02.452Z,3.75
2019-01-12T02:45:02.823Z,3.81
2019-01-12T02:46:03.113Z,3.81
2019-01-12T02:47:02.505Z,3.81
2019-01-12T02:48:02.780Z,3.75
2019-01-12T02:49:03.088Z,3.75
2019-01-12T02:50:02.383Z,3.75
2019-01-12T02:51:02.700Z,3.75
2019-01-12T02:52:03.015Z,3.68
2019-01-12T02:53:02.383Z,3.68
2019-01-12T02:54:02.710Z,3.68
2019-01-12T02:55:08.425Z,3.68
2019-01-12T02:56:02.285Z,3.68
2019-01-12T02:57:02.601Z,3.68
2019-01-12T02:58:02.928Z,3.68
2019-01-12T02:59:03.238Z,3.62
2019-01-12T03:00:02.532Z,3.62
2019-01-12T03:01:02.872Z,3.56
2019-01-12T03:02:03.230Z,3.62
2019-01-12T03:03:02.555Z,3.62
2019-01-12T03:04:02.866Z,3.62
2019-01-12T03:05:03.173Z,3.68
2019-01-12T03:06:02.512Z,3.68
2019-01-12T03:07:02.855Z,3.68
2019-01-12T03:08:03.162Z,3.68
2019-01-12T03:09:02.445Z,3.62
2019-01-12T03:10:02.760Z,3.56
2019-01-12T03:11:03.166Z,3.56
2019-01-12T03:12:02.452Z,3.56
2019-01-12T03:13:02.768Z,3.56
2019-01-12T03:14:03.088Z,3.62
2019-01-12T03:15:02.412Z,3.56
2019-01-12T03:16:02.744Z,3.56
2019-01-12T03:17:03.099Z,3.56
2019-01-12T03:18:02.363Z,3.56
2019-01-12T03:19:02.691Z,3.56
2019-01-12T03:20:03.018Z,3.56
2019-01-12T03:21:02.297Z,3.56
2019-01-12T03:22:02.672Z,3.56
2019-01-12T03:23:02.932Z,3.56
2019-01-12T03:24:03.248Z,3.56
2019-01-12T03:25:02.522Z,3.56
2019-01-12T03:26:02.859Z,3.56
2019-01-12T03:27:03.193Z,3.5
2019-01-12T03:28:02.449Z,3.56
2019-01-12T03:29:02.776Z,3.56
2019-01-12T03:30:03.121Z,3.56
2019-01-12T03:31:02.465Z,3.56
2019-01-12T03:32:02.870Z,3.56
2019-01-12T03:33:03.168Z,3.56
2019-01-12T03:34:02.450Z,3.56
2019-01-12T03:35:02.763Z,3.68
2019-01-12T03:36:03.097Z,3.68
2019-01-12T03:37:02.423Z,3.68
2019-01-12T03:38:02.778Z,3.62
2019-01-12T03:39:03.100Z,3.75
2019-01-12T03:40:02.367Z,3.75
2019-01-12T03:41:02.684Z,3.75
2019-01-12T03:42:03.058Z,3.75
2019-01-12T03:43:02.392Z,3.68
2019-01-12T03:44:02.694Z,3.68
2019-01-12T03:45:03.004Z,3.68
2019-01-12T03:46:02.300Z,3.68
2019-01-12T03:47:02.671Z,3.68
2019-01-12T03:48:03.023Z,3.62
2019-01-12T03:49:02.285Z,3.68
2019-01-12T03:50:02.599Z,3.68
2019-01-12T03:51:02.930Z,3.62
2019-01-12T03:52:04.111Z,3.68
2019-01-12T03:53:02.392Z,3.68
2019-01-12T03:54:02.696Z,3.62
2019-01-12T03:55:03.021Z,3.62
2019-01-12T03:56:02.293Z,3.62
2019-01-12T03:57:02.602Z,3.62
2019-01-12T03:58:02.979Z,3.62
2019-01-12T03:59:02.278Z,3.62
2019-01-12T04:00:02.628Z,3.56
2019-01-12T04:01:02.934Z,3.62
2019-01-12T04:02:03.325Z,3.62
2019-01-12T04:03:02.615Z,3.56
2019-01-12T04:04:02.951Z,3.56
2019-01-12T04:05:03.243Z,3.62
2019-01-12T04:06:02.543Z,3.56
2019-01-12T04:07:02.839Z,3.56
2019-01-12T04:08:03.169Z,3.5
2019-01-12T04:09:02.464Z,3.5
2019-01-12T04:10:02.774Z,3.5
2019-01-12T04:11:03.085Z,3.56
2019-01-12T04:12:02.355Z,3.5
2019-01-12T04:13:02.677Z,3.56
2019-01-12T04:14:02.994Z,3.5
2019-01-12T04:15:02.281Z,3.5
2019-01-12T04:16:02.605Z,3.5
2019-01-12T04:17:02.930Z,3.5
2019-01-12T04:18:03.302Z,3.5
2019-01-12T04:19:02.674Z,3.43
2019-01-12T04:20:02.921Z,3.43
2019-01-12T04:21:03.259Z,3.43
2019-01-12T04:22:02.555Z,3.43
2019-01-12T04:23:02.856Z,3.5
2019-01-12T04:24:03.212Z,3.5
2019-01-12T04:25:02.519Z,3.5
2019-01-12T04:26:02.840Z,3.43
2019-01-12T04:27:03.162Z,3.43
2019-01-12T04:28:02.449Z,3.43
2019-01-12T04:29:02.770Z,3.5
2019-01-12T04:30:03.115Z,3.5
2019-01-12T04:31:02.443Z,3.43
2019-01-12T04:32:02.762Z,3.5
2019-01-12T04:33:03.090Z,3.5
2019-01-12T04:34:02.445Z,3.5
2019-01-12T04:35:02.863Z,3.5
2019-01-12T04:36:03.157Z,3.5
2019-01-12T04:37:02.456Z,3.43
2019-01-12T04:38:02.818Z,3.43
2019-01-12T04:39:03.078Z,3.43
2019-01-12T04:40:02.371Z,3.43
2019-01-12T04:41:02.706Z,3.43
2019-01-12T04:42:03.005Z,3.43
2019-01-12T04:43:02.296Z,3.43
2019-01-12T04:44:02.606Z,3.5
2019-01-12T04:45:02.929Z,3.43
2019-01-12T04:46:03.273Z,3.43
2019-01-12T04:47:02.588Z,3.37
2019-01-12T04:48:02.859Z,3.37
2019-01-12T04:49:03.222Z,3.43
2019-01-12T04:50:02.519Z,3.43
2019-01-12T04:51:02.866Z,3.43
2019-01-12T04:52:03.208Z,3.43
2019-01-12T04:53:02.524Z,3.5
2019-01-12T04:54:02.852Z,3.43
2019-01-12T04:55:03.159Z,3.5
2019-01-12T04:56:02.550Z,3.43
2019-01-12T04:57:02.844Z,3.43
2019-01-12T04:58:04.045Z,3.43
2019-01-12T04:59:02.364Z,3.37
2019-01-12T05:00:02.690Z,3.43
2019-01-12T05:01:03.063Z,3.43
2019-01-12T05:02:02.369Z,3.43
2019-01-12T05:03:02.681Z,3.43
2019-01-12T05:04:03.016Z,3.43
2019-01-12T05:05:02.352Z,3.43
2019-01-12T05:06:02.660Z,3.5
2019-01-12T05:07:02.957Z,3.5
2019-01-12T05:08:02.284Z,3.5
2019-01-12T05:09:02.601Z,3.43
2019-01-12T05:10:02.914Z,3.43
2019-01-12T05:11:03.156Z,3.43
2019-01-12T05:12:02.528Z,3.43
2019-01-12T05:13:02.849Z,3.43
2019-01-12T05:14:03.221Z,3.43
2019-01-12T05:15:02.537Z,3.43
2019-01-12T05:16:02.835Z,3.43
2019-01-12T05:17:03.258Z,3.37
2019-01-12T05:18:02.531Z,3.43
2019-01-12T05:19:02.841Z,3.37
2019-01-12T05:20:03.213Z,3.43
2019-01-12T05:21:02.545Z,3.37
2019-01-12T05:22:02.863Z,3.37
2019-01-12T05:23:03.190Z,3.43
2019-01-12T05:24:02.463Z,3.43
2019-01-12T05:25:02.790Z,3.5
2019-01-12T05:26:02.287Z,3.43
2019-01-12T05:27:02.620Z,3.43
2019-01-12T05:28:02.998Z,3.43
2019-01-12T05:29:02.285Z,3.37
2019-01-12T05:30:02.603Z,3.37
2019-01-12T05:31:02.927Z,3.37
2019-01-12T05:32:03.244Z,3.37
2019-01-12T05:33:02.585Z,3.37
2019-01-12T05:34:02.842Z,3.37
2019-01-12T05:35:03.255Z,3.37
2019-01-12T05:36:02.538Z,3.37
2019-01-12T05:37:02.843Z,3.37
2019-01-12T05:38:03.246Z,3.37
2019-01-12T05:39:02.606Z,3.37
2019-01-12T05:40:02.934Z,3.43
2019-01-12T05:41:03.244Z,3.43
2019-01-12T05:42:03.414Z,3.5
2019-01-12T05:43:02.712Z,3.43
2019-01-12T05:44:03.028Z,3.43
2019-01-12T05:45:02.375Z,3.43
2019-01-12T05:46:03.572Z,3.43
2019-01-12T05:47:02.847Z,3.5
2019-01-12T05:48:03.173Z,3.43
2019-01-12T05:49:02.550Z,3.43
2019-01-12T05:50:02.891Z,3.43
2019-01-12T05:51:03.264Z,3.43
2019-01-12T05:52:02.527Z,3.5
2019-01-12T05:53:02.866Z,3.5
2019-01-12T05:54:03.189Z,3.5
2019-01-12T05:55:02.440Z,3.5
2019-01-12T05:56:02.767Z,3.5
2019-01-12T05:57:03.101Z,3.43
2019-01-12T05:58:02.366Z,3.5
2019-01-12T05:59:03.620Z,3.43
2019-01-12T06:00:02.943Z,3.43
2019-01-12T06:01:03.242Z,3.43
2019-01-12T06:02:02.536Z,3.43
2019-01-12T06:03:03.083Z,3.43
2019-01-12T06:04:02.364Z,3.43
2019-01-12T06:05:02.795Z,3.43
2019-01-12T06:06:03.210Z,3.43
2019-01-12T06:07:02.530Z,3.5
2019-01-12T06:08:02.838Z,3.43
2019-01-12T06:09:03.163Z,3.43
2019-01-12T06:10:02.461Z,3.43
2019-01-12T06:11:02.764Z,3.43
2019-01-12T06:12:03.101Z,3.5
2019-01-12T06:13:02.359Z,3.43
2019-01-12T06:14:02.678Z,3.5
2019-01-12T06:15:03.039Z,3.5
2019-01-12T06:16:02.367Z,3.56
2019-01-12T06:17:02.685Z,3.56
2019-01-12T06:18:03.005Z,3.56
2019-01-12T06:19:02.302Z,3.56
2019-01-12T06:20:02.653Z,3.56
2019-01-12T06:21:02.932Z,3.62
2019-01-12T06:22:03.302Z,3.56
2019-01-12T06:23:02.625Z,3.56
2019-01-12T06:24:02.931Z,3.56
2019-01-12T06:25:03.570Z,3.56
2019-01-12T06:26:03.942Z,3.56
2019-01-12T06:27:03.332Z,3.62
2019-01-12T06:28:02.616Z,3.62
2019-01-12T06:29:02.930Z,3.62
2019-01-12T06:30:03.260Z,3.56
2019-01-12T06:31:02.598Z,3.5
2019-01-12T06:32:02.922Z,3.5
2019-01-12T06:33:03.244Z,3.5
2019-01-12T06:34:02.537Z,3.43
2019-01-12T06:35:02.853Z,3.56
2019-01-12T06:36:03.255Z,3.56
2019-01-12T06:37:02.549Z,3.56
2019-01-12T06:38:02.903Z,3.56
2019-01-12T06:39:03.244Z,3.62
2019-01-12T06:40:02.541Z,3.56
2019-01-12T06:41:02.853Z,3.56
2019-01-12T06:42:03.185Z,3.56
2019-01-12T06:43:02.439Z,3.5
2019-01-12T06:44:02.766Z,3.56
2019-01-12T06:45:03.104Z,3.56
2019-01-12T06:46:02.360Z,3.56
2019-01-12T06:47:02.733Z,3.56
2019-01-12T06:48:03.001Z,3.56
2019-01-12T06:49:02.307Z,3.5
2019-01-12T06:50:02.629Z,3.5
2019-01-12T06:51:02.924Z,3.56
2019-01-12T06:52:03.272Z,3.62
2019-01-12T06:53:02.660Z,3.56
2019-01-12T06:54:02.920Z,3.56
2019-01-12T06:55:03.256Z,3.56
2019-01-12T06:56:02.599Z,3.62
2019-01-12T06:57:02.896Z,3.56
2019-01-12T06:58:03.173Z,3.5
2019-01-12T06:59:02.448Z,3.56
2019-01-12T07:00:02.769Z,3.56
2019-01-12T07:01:03.134Z,3.62
2019-01-12T07:02:02.457Z,3.56
2019-01-12T07:03:02.798Z,3.56
2019-01-12T07:04:03.092Z,3.5
2019-01-12T07:05:02.368Z,3.56
2019-01-12T07:06:02.690Z,3.56
2019-01-12T07:07:02.997Z,3.56
2019-01-12T07:08:02.314Z,3.56
2019-01-12T07:09:02.687Z,3.5
2019-01-12T07:10:03.024Z,3.56
2019-01-12T07:11:02.284Z,3.62
2019-01-12T07:12:02.618Z,3.62
2019-01-12T07:13:03.018Z,3.62
2019-01-12T07:14:02.295Z,3.56
2019-01-12T07:15:02.618Z,3.56
2019-01-12T07:16:02.943Z,3.62
2019-01-12T07:17:03.252Z,3.56
2019-01-12T07:18:08.591Z,3.5
2019-01-12T07:19:03.079Z,3.56
2019-01-12T07:20:02.370Z,3.5
2019-01-12T07:21:02.686Z,3.56
2019-01-12T07:22:03.001Z,3.5
2019-01-12T07:23:02.347Z,3.5
2019-01-12T07:24:02.751Z,3.5
2019-01-12T07:25:03.012Z,3.56
2019-01-12T07:26:02.296Z,3.5
2019-01-12T07:27:02.611Z,3.5
2019-01-12T07:28:02.994Z,3.5
2019-01-12T07:29:02.359Z,3.5
2019-01-12T07:30:02.699Z,3.5
2019-01-12T07:31:03.008Z,3.5
2019-01-12T07:32:02.336Z,3.56
2019-01-12T07:33:02.611Z,3.5
2019-01-12T07:34:03.018Z,3.5
2019-01-12T07:35:02.290Z,3.5
2019-01-12T07:36:02.607Z,3.5
2019-01-12T07:37:02.933Z,3.43
2019-01-12T07:38:03.279Z,3.43
2019-01-12T07:39:02.669Z,3.5
2019-01-12T07:40:03.019Z,3.43
2019-01-12T07:41:02.281Z,3.43
2019-01-12T07:42:02.609Z,3.43
2019-01-12T07:43:03.134Z,3.5
2019-01-12T07:44:02.590Z,3.5
2019-01-12T07:45:02.870Z,3.5
2019-01-12T07:46:03.162Z,3.5
2019-01-12T07:47:02.444Z,3.5
2019-01-12T07:48:02.781Z,3.5
2019-01-12T07:49:03.085Z,3.5
2019-01-12T07:50:02.387Z,3.5
2019-01-12T07:51:02.692Z,3.5
2019-01-12T07:52:03.904Z,3.56
2019-01-12T07:53:03.173Z,3.62
2019-01-12T07:54:02.454Z,3.62
2019-01-12T07:55:02.825Z,3.56
2019-01-12T07:56:03.084Z,3.56
2019-01-12T07:57:02.375Z,3.56
2019-01-12T07:58:02.680Z,3.68
2019-01-12T07:59:03.003Z,3.56
2019-01-12T08:00:02.364Z,3.62
2019-01-12T08:01:02.714Z,3.62
2019-01-12T08:02:03.013Z,3.62
2019-01-12T08:03:02.288Z,3.68
2019-01-12T08:04:03.471Z,3.68
2019-01-12T08:05:02.773Z,3.68
2019-01-12T08:06:03.128Z,3.75
2019-01-12T08:07:02.453Z,3.75
2019-01-12T08:08:02.768Z,3.81
2019-01-12T08:09:03.079Z,3.81
2019-01-12T08:10:02.374Z,3.81
2019-01-12T08:11:02.804Z,3.81
2019-01-12T08:12:03.091Z,3.81
2019-01-12T08:13:02.361Z,3.81
2019-01-12T08:14:02.690Z,3.81
2019-01-12T08:15:03.011Z,3.81
2019-01-12T08:16:02.344Z,3.81
2019-01-12T08:17:02.702Z,3.93
2019-01-12T08:18:03.003Z,3.93
2019-01-12T08:19:02.305Z,3.93
2019-01-12T08:20:02.621Z,4
2019-01-12T08:21:02.958Z,4.06
2019-01-12T08:22:02.356Z,4.06
2019-01-12T08:23:02.703Z,4.06
2019-01-12T08:24:03.069Z,4.06
2019-01-12T08:25:02.359Z,4.12
2019-01-12T08:26:02.790Z,4.12
2019-01-12T08:27:03.103Z,4.06
2019-01-12T08:28:03.258Z,4.12
2019-01-12T08:29:02.527Z,4.18
2019-01-12T08:30:02.844Z,4.18
2019-01-12T08:31:03.188Z,4.18
2019-01-12T08:32:02.474Z,4.18
2019-01-12T08:33:02.765Z,4.12
2019-01-12T08:34:03.081Z,4.18
2019-01-12T08:35:02.372Z,4.18
2019-01-12T08:36:02.692Z,4.18
2019-01-12T08:37:03.102Z,4.25
2019-01-12T08:38:02.360Z,4.18
2019-01-12T08:39:02.680Z,4.31
2019-01-12T08:40:03.005Z,4.31
2019-01-12T08:41:02.408Z,4.31
2019-01-12T08:42:02.738Z,4.31
2019-01-12T08:43:03.037Z,4.31
2019-01-12T08:44:02.369Z,4.31
2019-01-12T08:45:02.680Z,4.37
2019-01-12T08:46:03.022Z,4.37
2019-01-12T08:47:02.296Z,4.37
2019-01-12T08:48:02.629Z,4.31
2019-01-12T08:49:02.925Z,4.31
2019-01-12T08:50:03.255Z,4.37
2019-01-12T08:51:02.556Z,4.37
2019-01-12T08:52:02.841Z,4.37
2019-01-12T08:53:03.198Z,4.37
2019-01-12T08:54:02.516Z,4.43
2019-01-12T08:55:02.846Z,4.43
2019-01-12T08:56:03.227Z,4.43
2019-01-12T08:57:02.524Z,4.37
2019-01-12T08:58:02.971Z,4.37
2019-01-12T08:59:02.283Z,4.31
2019-01-12T09:00:02.609Z,4.31
2019-01-12T09:01:02.931Z,4.37
2019-01-12T09:02:04.129Z,4.43
2019-01-12T09:03:02.463Z,4.43
2019-01-12T09:04:02.793Z,4.43
2019-01-12T09:05:03.096Z,4.43
2019-01-12T09:06:02.421Z,4.43
2019-01-12T09:07:02.701Z,4.43
2019-01-12T09:08:03.006Z,4.43
2019-01-12T09:09:02.350Z,4.43
2019-01-12T09:10:02.611Z,4.5
2019-01-12T09:11:03.863Z,4.37
2019-01-12T09:12:03.165Z,4.43
2019-01-12T09:13:02.519Z,4.43
2019-01-12T09:14:02.940Z,4.43
2019-01-12T09:15:03.248Z,4.43
2019-01-12T09:16:02.522Z,4.5
2019-01-12T09:17:02.846Z,4.43
2019-01-12T09:18:03.177Z,4.43
2019-01-12T09:19:02.501Z,4.5
2019-01-12T09:20:02.767Z,4.5
2019-01-12T09:21:03.095Z,4.5
2019-01-12T09:22:02.379Z,4.5
2019-01-12T09:23:02.683Z,4.56
2019-01-12T09:24:03.102Z,4.5
2019-01-12T09:25:02.397Z,4.5
2019-01-12T09:26:02.685Z,4.5
2019-01-12T09:27:03.064Z,4.5
2019-01-12T09:28:02.375Z,4.5
2019-01-12T09:29:03.615Z,4.56
2019-01-12T09:30:02.927Z,4.56
2019-01-12T09:31:03.243Z,4.62
2019-01-12T09:32:02.536Z,4.62
2019-01-12T09:33:02.879Z,4.62
2019-01-12T09:34:03.187Z,4.62
2019-01-12T09:35:02.538Z,4.62
2019-01-12T09:36:02.844Z,4.68
2019-01-12T09:37:03.175Z,4.68
2019-01-12T09:38:03.336Z,4.75
2019-01-12T09:39:02.630Z,4.68
2019-01-12T09:40:02.982Z,4.75
2019-01-12T09:41:02.338Z,4.75
2019-01-12T09:42:02.655Z,4.75
2019-01-12T09:43:02.931Z,4.81
2019-01-12T09:44:03.252Z,4.81
2019-01-12T09:45:02.600Z,4.87
2019-01-12T09:46:02.948Z,4.87
2019-01-12T09:47:03.270Z,4.93
2019-01-12T09:48:02.605Z,4.87
2019-01-12T09:49:02.931Z,4.81
2019-01-12T09:50:03.269Z,4.81
2019-01-12T09:51:02.652Z,4.93
2019-01-12T09:52:02.932Z,4.87
2019-01-12T09:53:03.258Z,4.87
2019-01-12T09:54:02.542Z,4.87
2019-01-12T09:55:02.891Z,4.81
2019-01-12T09:56:03.165Z,4.87
2019-01-12T09:57:02.501Z,4.93
2019-01-12T09:58:02.775Z,4.93
2019-01-12T09:59:03.074Z,4.93
2019-01-12T10:00:02.371Z,4.93
2019-01-12T10:01:02.709Z,4.93
2019-01-12T10:02:03.003Z,4.93
2019-01-12T10:03:02.303Z,4.93
2019-01-12T10:04:02.605Z,4.93
2019-01-12T10:05:02.934Z,5
2019-01-12T10:06:03.311Z,5
2019-01-12T10:07:03.484Z,5
2019-01-12T10:08:02.792Z,5
2019-01-12T10:09:03.965Z,4.93
2019-01-12T10:10:03.156Z,4.87
2019-01-12T10:11:02.467Z,4.87
2019-01-12T10:12:02.889Z,4.87
2019-01-12T10:13:03.156Z,4.87
2019-01-12T10:14:02.527Z,4.93
2019-01-12T10:15:02.844Z,4.93
2019-01-12T10:16:03.308Z,4.93
2019-01-12T10:17:02.752Z,4.87
2019-01-12T10:18:03.011Z,4.87
2019-01-12T10:19:02.291Z,4.87
2019-01-12T10:20:02.598Z,4.87
2019-01-12T10:21:02.967Z,4.87
2019-01-12T10:22:02.350Z,4.87
2019-01-12T10:23:02.697Z,4.81
2019-01-12T10:24:03.017Z,4.87
2019-01-12T10:25:02.285Z,4.87
2019-01-12T10:26:02.609Z,4.87
2019-01-12T10:27:02.988Z,4.87
2019-01-12T10:28:02.355Z,4.87
2019-01-12T10:29:02.704Z,4.87
2019-01-12T10:30:03.026Z,4.87
2019-01-12T10:31:02.342Z,4.87
2019-01-12T10:32:02.731Z,4.93
2019-01-12T10:33:03.064Z,4.93
2019-01-12T10:34:02.378Z,4.93
2019-01-12T10:35:02.719Z,4.93
2019-01-12T10:36:03.034Z,4.93
2019-01-12T10:37:02.327Z,4.93
2019-01-12T10:38:02.702Z,4.93
2019-01-12T10:39:03.030Z,5
2019-01-12T10:40:02.259Z,5
2019-01-12T10:41:02.533Z,5.06
2019-01-12T10:42:02.903Z,5.06
2019-01-12T10:43:03.165Z,5.06
2019-01-12T10:44:02.480Z,5.06
2019-01-12T10:45:02.781Z,5.06
2019-01-12T10:46:03.097Z,5
2019-01-12T10:47:02.375Z,5.06
2019-01-12T10:48:02.684Z,5.06
2019-01-12T10:49:03.027Z,5.06
2019-01-12T10:50:02.333Z,5.06
2019-01-12T10:51:02.603Z,5.06
2019-01-12T10:52:02.936Z,5.12
2019-01-12T10:53:04.134Z,5.18
2019-01-12T10:54:02.496Z,5.12
2019-01-12T10:55:02.765Z,5.12
2019-01-12T10:56:03.081Z,5.12
2019-01-12T10:57:05.530Z,5.12
2019-01-12T10:58:03.094Z,5.12
2019-01-12T10:59:03.337Z,5.12
2019-01-12T11:00:02.621Z,5.12
2019-01-12T11:01:02.937Z,5.12
2019-01-12T11:02:03.247Z,5.12
2019-01-12T11:03:02.534Z,5.18
2019-01-12T11:04:02.900Z,5.18
2019-01-12T11:05:03.187Z,5.18
2019-01-12T11:06:02.570Z,5.25
2019-01-12T11:07:02.865Z,5.25
2019-01-12T11:08:03.191Z,5.25
2019-01-12T11:09:02.495Z,5.25
2019-01-12T11:10:04.172Z,5.25
2019-01-12T11:11:02.768Z,5.31
2019-01-12T11:12:03.085Z,5.25
2019-01-12T11:13:02.361Z,5.25
2019-01-12T11:14:02.858Z,5.25
2019-01-12T11:15:03.176Z,5.25
2019-01-12T11:16:02.565Z,5.25
2019-01-12T11:17:02.848Z,5.25
2019-01-12T11:18:03.182Z,5.31
2019-01-12T11:19:02.450Z,5.31
2019-01-12T11:20:02.786Z,5.25
2019-01-12T11:21:03.146Z,5.25
2019-01-12T11:22:02.447Z,5.31
2019-01-12T11:23:02.779Z,5.31
2019-01-12T11:24:03.082Z,5.31
2019-01-12T11:25:02.357Z,5.25
2019-01-12T11:26:02.613Z,5.25
2019-01-12T11:27:02.944Z,5.25
2019-01-12T11:28:03.242Z,5.31
2019-01-12T11:29:02.618Z,5.25
2019-01-12T11:30:02.930Z,5.25
2019-01-12T11:31:03.252Z,5.31
2019-01-12T11:32:03.431Z,5.37
2019-01-12T11:33:02.766Z,5.37
2019-01-12T11:34:03.087Z,5.37
2019-01-12T11:35:02.372Z,5.37
2019-01-12T11:36:02.711Z,5.37
2019-01-12T11:37:03.066Z,5.37
2019-01-12T11:38:02.367Z,5.31
2019-01-12T11:39:02.692Z,5.25
2019-01-12T11:40:03.011Z,5.18
2019-01-12T11:41:02.312Z,5.12
2019-01-12T11:42:02.628Z,5.12
2019-01-12T11:43:02.928Z,5.12
2019-01-12T11:44:03.311Z,5.12
2019-01-12T11:45:02.625Z,5.12
2019-01-12T11:46:02.926Z,5.12
2019-01-12T11:47:03.266Z,5.12
2019-01-12T11:48:02.622Z,5.06
2019-01-12T11:49:02.930Z,5.06
2019-01-12T11:50:03.253Z,5.06
2019-01-12T11:51:02.547Z,5.06
2019-01-12T11:52:02.921Z,5.12
2019-01-12T11:53:03.262Z,5.06
2019-01-12T11:54:02.530Z,5.12
2019-01-12T11:55:02.859Z,5.12
2019-01-12T11:56:03.167Z,5.12
2019-01-12T11:57:02.472Z,5.18
2019-01-12T11:58:02.769Z,5.18
2019-01-12T11:59:03.148Z,5.18
2019-01-12T12:00:02.643Z,5.18
2019-01-12T12:01:04.684Z,5.25
2019-01-12T12:02:03.109Z,5.25
2019-01-12T12:03:02.367Z,5.25
2019-01-12T12:04:02.688Z,5.31
2019-01-12T12:05:03.012Z,5.31
2019-01-12T12:06:02.297Z,5.31
2019-01-12T12:07:02.628Z,5.31
2019-01-12T12:08:03.857Z,5.37
2019-01-12T12:09:03.164Z,5.37
2019-01-12T12:10:02.441Z,5.37
2019-01-12T12:11:02.800Z,5.37
2019-01-12T12:12:03.107Z,5.31
2019-01-12T12:13:02.368Z,5.31
2019-01-12T12:14:02.688Z,5.31
2019-01-12T12:15:03.067Z,5.25
2019-01-12T12:16:02.373Z,5.25
2019-01-12T12:17:02.745Z,5.25
2019-01-12T12:18:03.009Z,5.18
2019-01-12T12:19:02.283Z,5.25
2019-01-12T12:20:02.631Z,5.18
2019-01-12T12:21:02.928Z,5.18
2019-01-12T12:22:03.271Z,5.12
2019-01-12T12:23:02.526Z,5.12
2019-01-12T12:24:02.885Z,5.12
2019-01-12T12:25:03.177Z,5.06
2019-01-12T12:26:02.472Z,5.06
2019-01-12T12:27:02.838Z,5.06
2019-01-12T12:28:03.174Z,5.06
2019-01-12T12:29:02.464Z,5.06
2019-01-12T12:30:02.822Z,5
2019-01-12T12:31:03.093Z,5
2019-01-12T12:32:02.436Z,5
2019-01-12T12:33:02.794Z,4.93
2019-01-12T12:34:03.967Z,5
2019-01-12T12:35:02.295Z,5
2019-01-12T12:36:02.627Z,5
2019-01-12T12:37:03.036Z,5
2019-01-12T12:38:02.358Z,4.93
2019-01-12T12:39:03.578Z,5
2019-01-12T12:40:02.845Z,5
2019-01-12T12:41:03.161Z,5.06
2019-01-12T12:42:02.489Z,5
2019-01-12T12:43:02.777Z,5
2019-01-12T12:44:03.091Z,5.06
2019-01-12T12:45:02.376Z,5
2019-01-12T12:46:02.804Z,5
2019-01-12T12:47:03.175Z,5.06
2019-01-12T12:48:02.458Z,5.06
2019-01-12T12:49:02.772Z,5.06
2019-01-12T12:50:03.086Z,5.06
2019-01-12T12:51:02.362Z,5.12
2019-01-12T12:52:02.717Z,5.12
2019-01-12T12:53:03.001Z,5.06
2019-01-12T12:54:02.291Z,5.06
2019-01-12T12:55:02.619Z,5.06
2019-01-12T12:56:02.924Z,5.06
2019-01-12T12:57:03.275Z,5.06
2019-01-12T12:58:02.595Z,5.06
2019-01-12T12:59:02.922Z,5
2019-01-12T13:00:03.782Z,5
2019-01-12T13:01:03.181Z,5
2019-01-12T13:02:02.583Z,4.93
2019-01-12T13:03:02.865Z,4.93
2019-01-12T13:04:03.193Z,4.93
2019-01-12T13:05:02.537Z,4.93
2019-01-12T13:06:02.858Z,4.93
2019-01-12T13:07:03.221Z,4.93
2019-01-12T13:08:02.535Z,5
2019-01-12T13:09:02.816Z,4.93
2019-01-12T13:10:03.105Z,5
2019-01-12T13:11:02.395Z,5
2019-01-12T13:12:02.703Z,4.93
2019-01-12T13:13:03.044Z,5
2019-01-12T13:14:02.362Z,4.93
2019-01-12T13:15:02.689Z,4.93
2019-01-12T13:16:03.016Z,4.93
2019-01-12T13:17:04.160Z,4.93
2019-01-12T13:18:02.572Z,4.93
2019-01-12T13:19:02.850Z,4.93
2019-01-12T13:20:03.178Z,4.87
2019-01-12T13:21:02.455Z,4.87
2019-01-12T13:22:02.765Z,4.87
2019-01-12T13:23:03.144Z,4.87
2019-01-12T13:24:02.446Z,4.87